createdAt,value
2023-04-22T00:01:55.114Z,537.35
2023-04-22T00:04:25.118Z,495.98
2023-04-22T00:06:53.621Z,510.30
2023-04-22T00:09:21.982Z,578.00
2023-04-22T00:11:50.479Z,543.92
2023-04-22T00:14:18.920Z,523.88
2023-04-22T00:16:47.320Z,536.00
2023-04-22T00:19:16.134Z,528.33
2023-04-22T00:21:45.776Z,536.08
2023-04-22T00:24:14.154Z,546.72
2023-04-22T00:26:42.525Z,537.10
2023-04-22T00:29:10.881Z,534.28
2023-04-22T00:31:39.422Z,564.10
2023-04-22T00:34:07.814Z,520.50
2023-04-22T00:36:36.191Z,576.15
2023-04-22T00:39:06.420Z,554.45
2023-04-22T00:41:34.840Z,548.60
2023-04-22T00:44:03.276Z,542.25
2023-04-22T00:46:31.899Z,543.33
2023-04-22T00:49:00.467Z,503.27
2023-04-22T00:51:28.923Z,530.22
2023-04-22T00:53:57.249Z,591.22
2023-04-22T00:56:27.594Z,499.02
2023-04-22T00:58:56.419Z,527.15
2023-04-22T01:01:25.114Z,513.50
2023-04-22T01:03:54.084Z,545.92
2023-04-22T01:06:22.958Z,603.45
2023-04-22T01:08:51.386Z,556.50
2023-04-22T01:11:19.743Z,555.45
2023-04-22T01:13:49.742Z,552.42
2023-04-22T01:16:18.236Z,553.35
2023-04-22T01:18:46.619Z,521.72
2023-04-22T01:21:15.003Z,600.53
2023-04-22T01:23:44.874Z,563.67
2023-04-22T01:26:13.492Z,538.08
2023-04-22T01:28:42.083Z,565.88
2023-04-22T01:31:10.910Z,593.15
2023-04-22T01:33:39.582Z,576.92
2023-04-22T01:36:09.789Z,576.60
2023-04-22T01:38:39.448Z,594.13
2023-04-22T01:41:09.615Z,571.17
2023-04-22T01:43:38.143Z,584.35
2023-04-22T01:46:07.205Z,630.10
2023-04-22T01:48:36.226Z,586.38
2023-04-22T01:51:04.845Z,638.30
2023-04-22T01:53:33.436Z,639.30
2023-04-22T01:56:01.855Z,556.65
2023-04-22T01:58:34.251Z,569.10
2023-04-22T02:01:02.887Z,590.00
2023-04-22T02:03:31.409Z,545.85
2023-04-22T02:05:59.891Z,521.10
2023-04-22T02:08:28.361Z,507.90
2023-04-22T02:10:56.704Z,551.80
2023-04-22T02:13:25.128Z,527.17
2023-04-22T02:15:55.189Z,522.75
2023-04-22T02:18:23.632Z,540.17
2023-04-22T02:20:52.262Z,512.42
2023-04-22T02:23:20.860Z,544.20
2023-04-22T02:25:52.460Z,510.13
2023-04-22T02:28:20.902Z,561.08
2023-04-22T02:30:49.452Z,549.58
2023-04-22T02:33:19.273Z,525.10
2023-04-22T02:35:47.822Z,548.72
2023-04-22T02:38:16.331Z,523.38
2023-04-22T02:40:45.499Z,530.47
2023-04-22T02:43:15.071Z,555.63
2023-04-22T02:45:43.940Z,530.42
2023-04-22T02:48:12.425Z,590.15
2023-04-22T02:50:42.429Z,495.15
2023-04-22T02:53:10.846Z,531.15
2023-04-22T02:55:40.312Z,547.60
2023-04-22T02:58:08.847Z,534.90
2023-04-22T03:00:37.326Z,514.72
2023-04-22T03:03:06.012Z,514.58
2023-04-22T03:05:34.458Z,544.75
2023-04-22T03:08:04.457Z,544.35
2023-04-22T03:10:33.302Z,495.25
2023-04-22T03:13:01.663Z,512.33
2023-04-22T03:15:30.573Z,564.13
2023-04-22T03:17:58.978Z,513.72
2023-04-22T03:20:27.405Z,497.67
2023-04-22T03:22:55.736Z,603.70
2023-04-22T03:25:25.640Z,644.47
2023-04-22T03:27:54.042Z,634.72
2023-04-22T03:30:22.524Z,535.20
2023-04-22T03:32:51.109Z,559.30
2023-04-22T03:35:19.693Z,539.95
2023-04-22T03:37:48.034Z,515.00
2023-04-22T03:40:16.981Z,575.38
2023-04-22T03:42:46.716Z,564.45
2023-04-22T03:45:15.263Z,526.85
2023-04-22T03:47:43.900Z,607.72
2023-04-22T03:50:13.066Z,634.83
2023-04-22T03:52:41.490Z,548.15
2023-04-22T03:55:10.922Z,604.35
2023-04-22T03:57:39.279Z,480.95
2023-04-22T04:00:12.997Z,561.45
2023-04-22T04:02:41.379Z,507.73
2023-04-22T04:05:11.391Z,589.63
2023-04-22T04:07:39.904Z,621.10
2023-04-22T04:10:09.462Z,485.08
2023-04-22T04:12:37.980Z,564.13
2023-04-22T04:15:09.010Z,615.38
2023-04-22T04:17:37.654Z,545.25
2023-04-22T04:20:07.167Z,548.22
2023-04-22T04:22:35.595Z,486.58
2023-04-22T04:25:04.111Z,554.47
2023-04-22T04:27:32.918Z,521.72
2023-04-22T04:30:01.302Z,524.10
2023-04-22T04:32:34.400Z,493.48
2023-04-22T04:35:03.196Z,471.90
2023-04-22T04:37:31.587Z,596.63
2023-04-22T04:40:00.347Z,511.23
2023-04-22T04:42:30.502Z,515.35
2023-04-22T04:44:59.479Z,476.73
2023-04-22T04:47:28.538Z,488.73
2023-04-22T04:49:58.817Z,487.42
2023-04-22T04:52:27.184Z,522.20
2023-04-22T04:54:55.565Z,544.72
2023-04-22T04:57:24.144Z,517.17
2023-04-22T04:59:52.498Z,484.38
2023-04-22T05:02:21.201Z,595.60
2023-04-22T05:04:49.999Z,526.13
2023-04-22T05:07:19.984Z,509.05
2023-04-22T05:09:48.620Z,460.05
2023-04-22T05:12:17.022Z,485.98
2023-04-22T05:14:46.707Z,514.28
2023-04-22T05:17:15.415Z,484.00
2023-04-22T05:19:43.881Z,527.88
2023-04-22T05:22:12.396Z,486.35
2023-04-22T05:24:42.298Z,565.15
2023-04-22T05:27:10.763Z,496.25
2023-04-22T05:29:39.398Z,630.92
2023-04-22T05:32:09.053Z,531.42
2023-04-22T05:34:37.761Z,556.53
2023-04-22T05:37:06.307Z,513.33
2023-04-22T05:39:34.677Z,583.40
2023-04-22T05:42:04.604Z,577.70
2023-04-22T05:44:33.045Z,547.28
2023-04-22T05:47:01.390Z,586.55
2023-04-22T05:49:29.842Z,558.38
2023-04-22T05:51:58.197Z,620.85
2023-04-22T05:54:27.168Z,598.58
2023-04-22T05:56:55.893Z,617.72
2023-04-22T05:59:26.536Z,650.97
2023-04-22T06:01:55.165Z,643.45
2023-04-22T06:04:24.439Z,699.83
2023-04-22T06:06:54.427Z,680.47
2023-04-22T06:09:23.240Z,691.15
2023-04-22T06:11:51.842Z,739.35
2023-04-22T06:14:20.536Z,673.08
2023-04-22T06:16:53.062Z,665.38
2023-04-22T06:19:21.574Z,652.15
2023-04-22T06:21:50.129Z,653.95
2023-04-22T06:24:18.723Z,626.38
2023-04-22T06:26:55.303Z,566.97
2023-04-22T06:29:24.157Z,533.88
2023-04-22T06:31:59.745Z,574.05
2023-04-22T06:34:28.177Z,566.72
2023-04-22T06:36:56.543Z,556.92
2023-04-22T06:39:24.949Z,608.15
2023-04-22T06:41:53.396Z,520.13
2023-04-22T06:44:21.782Z,559.95
2023-04-22T06:46:50.271Z,585.10
2023-04-22T06:49:20.240Z,590.13
2023-04-22T06:51:48.597Z,584.17
2023-04-22T06:54:17.394Z,571.55
2023-04-22T06:56:49.088Z,573.42
2023-04-22T06:59:18.043Z,577.60
2023-04-22T07:01:46.405Z,581.33
2023-04-22T07:04:14.882Z,602.13
2023-04-22T07:06:44.991Z,594.97
2023-04-22T07:09:13.332Z,666.95
2023-04-22T07:11:41.668Z,585.47
2023-04-22T07:14:10.466Z,530.90
2023-04-22T07:16:39.421Z,574.03
2023-04-22T07:19:08.922Z,625.63
2023-04-22T07:21:37.209Z,707.33
2023-04-22T07:24:11.836Z,528.20
2023-04-22T07:26:41.039Z,554.70
2023-04-22T07:29:09.569Z,593.58
2023-04-22T07:31:38.778Z,497.27
2023-04-22T07:34:07.535Z,537.42
2023-04-22T07:36:36.050Z,526.22
2023-04-22T07:39:40.638Z,527.13
2023-04-22T07:42:11.698Z,482.15
2023-04-22T07:44:40.525Z,500.17
2023-04-22T07:47:11.023Z,506.60
2023-04-22T07:49:39.598Z,511.65
2023-04-22T07:52:08.176Z,501.13
2023-04-22T07:54:38.077Z,553.83
2023-04-22T07:57:55.536Z,512.65
2023-04-22T08:00:37.484Z,506.10
2023-04-22T08:03:07.060Z,487.20
2023-04-22T08:05:35.699Z,485.35
2023-04-22T08:08:04.062Z,493.45
2023-04-22T08:10:34.115Z,465.20
2023-04-22T08:13:02.747Z,486.25
2023-04-22T08:15:31.285Z,484.80
2023-04-22T08:17:59.784Z,479.75
2023-04-22T08:20:28.376Z,621.67
2023-04-22T08:23:00.394Z,481.58
2023-04-22T08:26:23.109Z,531.85
2023-04-22T08:28:53.009Z,519.22
2023-04-22T08:31:21.630Z,511.83
2023-04-22T08:33:50.769Z,592.20
2023-04-22T08:36:21.918Z,517.10
2023-04-22T08:38:50.655Z,584.33
2023-04-22T08:41:19.921Z,641.63
2023-04-22T08:43:49.332Z,602.05
2023-04-22T08:46:21.074Z,482.55
2023-04-22T08:48:50.339Z,507.10
2023-04-22T08:51:19.707Z,559.28
2023-04-22T08:53:48.555Z,515.10
2023-04-22T08:56:17.225Z,555.17
2023-04-22T08:58:46.540Z,522.53
2023-04-22T09:01:21.905Z,587.38
2023-04-22T09:03:52.539Z,495.95
2023-04-22T09:06:21.654Z,502.25
2023-04-22T09:08:50.589Z,497.08
2023-04-22T09:11:19.768Z,494.70
2023-04-22T09:13:48.634Z,540.40
2023-04-22T09:16:16.966Z,507.27
2023-04-22T09:18:46.999Z,479.27
2023-04-22T09:21:15.648Z,580.45
2023-04-22T09:23:49.124Z,499.48
2023-04-22T09:26:20.625Z,503.45
2023-04-22T09:28:53.141Z,520.47
2023-04-22T09:31:22.471Z,508.42
2023-04-22T09:33:54.744Z,505.88
2023-04-22T09:36:28.397Z,482.50
2023-04-22T09:38:58.592Z,503.05
2023-04-22T09:41:30.616Z,636.03
2023-04-22T09:44:00.387Z,594.50
2023-04-22T09:46:29.913Z,571.40
2023-04-22T09:49:00.540Z,515.40
2023-04-22T09:51:29.759Z,510.17
2023-04-22T09:54:04.216Z,503.50
2023-04-22T09:56:48.065Z,500.65
2023-04-22T09:59:20.935Z,504.25
2023-04-22T10:01:49.450Z,519.83
2023-04-22T10:04:21.535Z,524.08
2023-04-22T10:06:51.177Z,535.45
2023-04-22T10:09:21.435Z,528.15
2023-04-22T10:11:50.571Z,538.88
2023-04-22T10:14:19.717Z,534.90
2023-04-22T10:16:49.510Z,498.55
2023-04-22T10:19:23.045Z,515.63
2023-04-22T10:21:55.629Z,523.63
2023-04-22T10:24:26.100Z,533.95
2023-04-22T10:26:57.738Z,530.38
2023-04-22T10:29:27.518Z,531.97
2023-04-22T10:31:58.358Z,585.88
2023-04-22T10:34:28.115Z,552.55
2023-04-22T10:37:01.869Z,563.40
2023-04-22T10:39:30.841Z,627.65
2023-04-22T10:42:09.939Z,540.70
2023-04-22T10:44:49.204Z,540.72
2023-04-22T10:47:28.917Z,545.38
2023-04-22T10:50:21.185Z,554.75
2023-04-22T10:52:52.043Z,580.83
2023-04-22T10:55:21.370Z,550.70
2023-04-22T10:57:51.377Z,531.95
2023-04-22T11:00:25.596Z,604.70
2023-04-22T11:05:27.667Z,514.67
2023-04-22T11:07:59.762Z,490.20
2023-04-22T11:10:44.328Z,523.00
2023-04-22T11:13:14.994Z,521.22
2023-04-22T11:15:44.918Z,541.58
2023-04-22T11:18:18.310Z,581.10
2023-04-22T11:20:49.729Z,546.42
2023-04-22T11:23:24.223Z,586.58
2023-04-22T11:25:59.519Z,537.45
2023-04-22T11:28:28.171Z,530.72
2023-04-22T11:31:03.848Z,590.47
2023-04-22T11:33:34.050Z,531.25
2023-04-22T11:36:06.003Z,535.58
2023-04-22T11:38:34.439Z,576.85
2023-04-22T11:41:05.031Z,544.80
2023-04-22T11:43:33.520Z,555.63
2023-04-22T11:46:02.240Z,555.13
2023-04-22T11:48:30.689Z,531.15
2023-04-22T11:51:13.200Z,556.30
2023-04-22T11:53:48.239Z,525.97
2023-04-22T11:56:16.586Z,543.45
2023-04-22T11:58:44.963Z,544.40
2023-04-22T12:01:15.208Z,549.30
2023-04-22T12:03:43.812Z,582.30
2023-04-22T12:06:13.786Z,561.67
2023-04-22T12:08:44.332Z,535.53
2023-04-22T12:11:13.915Z,593.58
2023-04-22T12:13:43.824Z,553.28
2023-04-22T12:16:13.771Z,551.08
2023-04-22T12:18:49.102Z,539.20
2023-04-22T12:21:20.638Z,566.58
2023-04-22T12:23:50.550Z,507.52
2023-04-22T12:26:19.991Z,503.10
2023-04-22T12:28:49.775Z,498.58
2023-04-22T12:31:19.026Z,558.25
2023-04-22T12:33:48.423Z,523.22
2023-04-22T12:36:18.407Z,495.30
2023-04-22T12:38:46.834Z,495.83
2023-04-22T12:41:15.853Z,530.10
2023-04-22T12:43:44.394Z,497.98
2023-04-22T12:46:13.533Z,570.65
2023-04-22T12:48:42.878Z,500.50
2023-04-22T12:51:11.333Z,488.52
2023-04-22T12:53:41.024Z,476.13
2023-04-22T12:56:09.540Z,506.73
2023-04-22T12:58:37.933Z,542.30
2023-04-22T13:01:06.340Z,526.47
2023-04-22T13:03:34.914Z,546.40
2023-04-22T13:06:03.540Z,457.20
2023-04-22T13:08:32.173Z,487.77
2023-04-22T13:11:02.189Z,487.85
2023-04-22T13:13:30.580Z,456.10
2023-04-22T13:15:58.939Z,447.30
2023-04-22T13:18:27.325Z,445.52
2023-04-22T13:20:56.806Z,529.92
2023-04-22T13:23:26.649Z,444.55
2023-04-22T13:25:55.277Z,460.20
2023-04-22T13:28:24.992Z,438.83
2023-04-22T13:30:53.570Z,441.42
2023-04-22T13:33:21.911Z,470.38
2023-04-22T13:35:50.292Z,495.98
2023-04-22T13:38:18.629Z,440.23
2023-04-22T13:40:46.975Z,465.25
2023-04-22T13:43:15.366Z,436.60
2023-04-22T13:45:45.438Z,482.52
2023-04-22T13:48:13.852Z,480.60
2023-04-22T13:50:42.961Z,497.55
2023-04-22T13:53:11.854Z,458.00
2023-04-22T13:55:41.382Z,453.05
2023-04-22T13:58:09.811Z,456.80
2023-04-22T14:00:42.373Z,470.80
2023-04-22T14:03:12.767Z,470.80
2023-04-22T14:05:43.861Z,461.95
2023-04-22T14:08:16.789Z,495.23
2023-04-22T14:10:45.504Z,462.15
2023-04-22T14:13:14.093Z,497.35
2023-04-22T14:15:42.739Z,461.02
2023-04-22T14:18:13.176Z,458.25
2023-04-22T14:20:43.129Z,474.70
2023-04-22T14:23:11.603Z,454.42
2023-04-22T14:25:40.013Z,466.35
2023-04-22T14:28:08.456Z,487.15
2023-04-22T14:30:37.020Z,457.15
2023-04-22T14:33:07.064Z,462.90
2023-04-22T14:35:38.780Z,468.75
2023-04-22T14:40:52.068Z,466.25
2023-04-22T14:43:21.163Z,477.35
2023-04-22T14:45:55.729Z,476.25
2023-04-22T14:48:25.430Z,470.38
2023-04-22T14:50:56.044Z,478.98
2023-04-22T14:53:34.269Z,487.55
2023-04-22T14:56:26.923Z,451.42
2023-04-22T14:59:06.257Z,458.13
2023-04-22T15:02:29.284Z,606.60
2023-04-22T15:05:24.112Z,461.30
2023-04-22T15:11:21.563Z,455.02
2023-04-22T15:13:50.030Z,471.98
2023-04-22T15:16:40.270Z,497.52
2023-04-22T15:19:34.488Z,455.63
2023-04-22T15:26:26.465Z,473.85
2023-04-22T15:36:41.215Z,477.35
2023-04-22T15:39:12.375Z,492.23
2023-04-22T15:41:42.028Z,525.67
2023-04-22T15:44:12.796Z,496.75
2023-04-22T15:46:44.394Z,506.88
2023-04-22T15:49:13.783Z,525.55
2023-04-22T15:51:43.530Z,525.90
2023-04-22T15:54:12.983Z,509.42
2023-04-22T15:56:41.743Z,551.42
2023-04-22T15:59:10.082Z,492.98
2023-04-22T16:01:40.588Z,461.05
2023-04-22T16:04:09.372Z,563.55
2023-04-22T16:06:38.448Z,476.00
2023-04-22T16:09:08.244Z,583.67
2023-04-22T16:11:36.603Z,509.33
2023-04-22T16:14:04.990Z,505.00
2023-04-22T16:16:34.591Z,564.30
2023-04-22T16:19:03.864Z,527.35
2023-04-22T16:21:32.661Z,574.67
2023-04-22T16:24:01.485Z,499.33
2023-04-22T16:26:31.446Z,518.75
2023-04-22T16:29:01.963Z,538.42
2023-04-22T16:31:30.360Z,537.97
2023-04-22T16:33:59.486Z,536.40
2023-04-22T16:36:27.905Z,553.90
2023-04-22T16:39:10.231Z,541.28
2023-04-22T16:41:43.280Z,500.15
2023-04-22T16:44:11.744Z,541.80
2023-04-22T16:46:40.296Z,557.55
2023-04-22T16:49:10.453Z,551.70
2023-04-22T16:51:39.808Z,533.10
2023-04-22T16:54:08.358Z,568.20
2023-04-22T16:56:37.558Z,576.35
2023-04-22T16:59:07.322Z,661.00
2023-04-22T17:01:36.192Z,574.05
2023-04-22T17:04:04.790Z,577.95
2023-04-22T17:06:33.451Z,558.92
2023-04-22T17:09:01.880Z,600.83
2023-04-22T17:11:32.273Z,571.05
2023-04-22T17:14:00.965Z,569.40
2023-04-22T17:16:30.871Z,615.47
2023-04-22T17:18:59.262Z,565.55
2023-04-22T17:21:28.063Z,708.75
2023-04-22T17:27:54.748Z,605.30
2023-04-22T17:30:24.968Z,571.95
2023-04-22T17:37:09.349Z,632.08
2023-04-22T17:43:36.417Z,648.20
2023-04-22T17:46:05.221Z,634.05
2023-04-22T17:49:09.889Z,650.25
2023-04-22T17:51:46.432Z,622.95
2023-04-22T17:54:19.086Z,668.45
2023-04-22T17:56:51.592Z,678.80
2023-04-22T17:59:53.979Z,723.33
2023-04-22T18:02:25.927Z,684.42
2023-04-22T18:05:31.352Z,690.35
2023-04-22T18:08:39.021Z,666.40
2023-04-22T18:11:53.775Z,651.00
2023-04-22T18:15:20.720Z,670.97
2023-04-22T18:18:06.366Z,645.35
2023-04-22T18:24:09.373Z,749.33
2023-04-22T18:26:38.146Z,734.08
2023-04-22T18:29:19.918Z,614.67
2023-04-22T18:31:48.433Z,679.03
2023-04-22T18:34:18.207Z,598.80
2023-04-22T18:36:46.572Z,607.42
2023-04-22T18:39:14.966Z,587.92
2023-04-22T18:41:43.345Z,587.88
2023-04-22T18:44:11.896Z,614.78
2023-04-22T18:46:40.505Z,592.67
2023-04-22T18:49:08.849Z,598.22
2023-04-22T18:51:39.974Z,597.20
2023-04-22T18:54:10.339Z,592.88
2023-04-22T18:56:38.660Z,680.38
2023-04-22T18:59:06.972Z,642.42
2023-04-22T19:01:35.922Z,645.42
2023-04-22T19:04:04.562Z,612.70
2023-04-22T19:06:32.986Z,662.08
2023-04-22T19:09:04.625Z,594.63
2023-04-22T19:11:33.045Z,608.30
2023-04-22T19:14:03.042Z,638.75
2023-04-22T19:16:31.589Z,676.40
2023-04-22T19:19:00.001Z,682.67
2023-04-22T19:21:29.863Z,679.58
2023-04-22T19:23:58.759Z,639.53
2023-04-22T19:26:29.703Z,653.55
2023-04-22T19:28:58.182Z,678.22
2023-04-22T19:31:28.296Z,663.40
2023-04-22T19:33:56.696Z,667.92
2023-04-22T19:36:25.532Z,685.63
2023-04-22T19:38:53.929Z,691.22
2023-04-22T19:41:22.339Z,694.20
2023-04-22T19:43:52.105Z,653.50
2023-04-22T19:46:20.549Z,638.05
2023-04-22T19:48:52.189Z,576.47
2023-04-22T19:51:23.642Z,580.50
2023-04-22T19:54:53.926Z,565.95
2023-04-22T19:57:34.797Z,598.38
2023-04-22T20:01:08.673Z,591.78
2023-04-22T20:03:41.396Z,609.70
2023-04-22T20:06:10.581Z,646.80
2023-04-22T20:09:14.854Z,693.30
2023-04-22T20:12:30.674Z,681.53
2023-04-22T20:18:12.952Z,619.53
2023-04-22T20:21:04.158Z,630.40
2023-04-22T20:24:03.062Z,635.88
2023-04-22T20:27:06.634Z,612.00
2023-04-22T20:30:09.277Z,646.65
2023-04-22T20:33:09.053Z,583.53
2023-04-22T20:36:15.984Z,641.00
2023-04-22T20:39:11.556Z,581.28
2023-04-22T20:41:40.744Z,619.58
2023-04-22T20:44:14.160Z,621.35
2023-04-22T20:46:56.832Z,589.87
2023-04-22T20:49:52.386Z,638.53
2023-04-22T20:52:47.675Z,612.95
2023-04-22T20:55:59.893Z,603.72
2023-04-22T20:58:37.859Z,592.83
2023-04-22T21:01:57.474Z,625.92
2023-04-22T21:05:08.687Z,583.53
2023-04-22T21:08:28.187Z,555.22
2023-04-22T21:11:02.784Z,555.08
2023-04-22T21:14:00.012Z,619.03
2023-04-22T21:17:04.173Z,648.92
2023-04-22T21:19:56.944Z,622.33
2023-04-22T21:23:06.602Z,590.05
2023-04-22T21:25:37.352Z,590.72
2023-04-22T21:28:09.477Z,586.90
2023-04-22T21:30:38.483Z,562.25
2023-04-22T21:33:21.347Z,577.75
2023-04-22T21:35:50.476Z,591.15
2023-04-22T21:38:26.045Z,582.78
2023-04-22T21:41:01.291Z,606.05
2023-04-22T21:43:30.040Z,576.47
2023-04-22T21:46:01.188Z,565.63
2023-04-22T21:48:29.858Z,594.45
2023-04-22T21:51:01.465Z,556.33
2023-04-22T21:53:34.738Z,567.67
2023-04-22T21:56:05.258Z,595.03
2023-04-22T21:58:35.528Z,576.42
2023-04-22T22:01:09.051Z,566.85
2023-04-22T22:03:44.784Z,551.43
2023-04-22T22:06:14.114Z,624.30
2023-04-22T22:08:44.528Z,637.92
2023-04-22T22:11:30.790Z,616.53
2023-04-22T22:14:12.500Z,544.95
2023-04-22T22:16:41.311Z,594.22
2023-04-22T22:19:33.679Z,563.72
2023-04-22T22:22:34.213Z,555.28
2023-04-22T22:25:03.289Z,551.33
2023-04-22T22:27:37.794Z,573.83
2023-04-22T22:32:42.340Z,554.63
2023-04-22T22:35:20.815Z,543.40
2023-04-22T22:37:49.352Z,551.42
2023-04-22T22:40:17.749Z,571.85
2023-04-22T22:42:50.000Z,590.17
2023-04-22T22:45:19.176Z,563.85
2023-04-22T22:47:49.144Z,591.17
2023-04-22T22:50:23.191Z,601.00
2023-04-22T22:52:55.014Z,549.22
2023-04-22T22:55:23.986Z,604.50
2023-04-22T22:58:02.640Z,574.53
2023-04-22T23:00:37.604Z,551.42
2023-04-22T23:03:07.055Z,568.20
2023-04-22T23:05:35.679Z,580.50
2023-04-22T23:09:22.530Z,555.92
2023-04-22T23:15:24.917Z,535.90
2023-04-22T23:17:56.497Z,546.37
2023-04-22T23:20:25.772Z,530.28
2023-04-22T23:22:55.024Z,570.35
2023-04-22T23:25:23.939Z,565.78
2023-04-22T23:27:52.870Z,543.83
2023-04-22T23:30:23.878Z,609.10
2023-04-22T23:32:53.191Z,528.20
2023-04-22T23:35:22.332Z,592.20
2023-04-22T23:37:52.980Z,540.13
2023-04-22T23:40:21.429Z,556.03
2023-04-22T23:42:49.986Z,569.42
2023-04-22T23:45:18.693Z,575.50
2023-04-22T23:47:48.443Z,584.88
2023-04-22T23:50:19.090Z,596.13
2023-04-22T23:52:47.520Z,614.47
2023-04-22T23:55:16.849Z,583.20
2023-04-22T23:57:45.764Z,563.53
